sensor_id;sensor_type;location;lat;lon;timestamp;P1;durP1;ratioP1;P2;durP2;ratioP2
38567;SDS011;24338;48.280;10.970;2022-11-14T00:00:59;24.38;;;14.20;;
38567;SDS011;24338;48.280;10.970;2022-11-14T00:03:31;33.28;;;15.90;;
38567;SDS011;24338;48.280;10.970;2022-11-14T00:05:58;27.80;;;15.48;;
38567;SDS011;24338;48.280;10.970;2022-11-14T00:08:25;33.25;;;15.05;;
38567;SDS011;24338;48.280;10.970;2022-11-14T00:10:52;23.90;;;14.45;;
38567;SDS011;24338;48.280;10.970;2022-11-14T00:13:19;24.42;;;15.77;;
38567;SDS011;24338;48.280;10.970;2022-11-14T00:15:50;29.25;;;15.65;;
38567;SDS011;24338;48.280;10.970;2022-11-14T00:18:21;26.65;;;13.88;;
38567;SDS011;24338;48.280;10.970;2022-11-14T00:20:48;25.67;;;14.07;;
38567;SDS011;24338;48.280;10.970;2022-11-14T00:23:16;20.52;;;13.20;;
38567;SDS011;24338;48.280;10.970;2022-11-14T00:25:44;29.95;;;12.88;;
38567;SDS011;24338;48.280;10.970;2022-11-14T00:28:11;25.15;;;13.52;;
38567;SDS011;24338;48.280;10.970;2022-11-14T00:30:38;30.55;;;13.13;;
38567;SDS011;24338;48.280;10.970;2022-11-14T00:33:05;26.73;;;13.40;;
38567;SDS011;24338;48.280;10.970;2022-11-14T00:35:32;31.35;;;12.57;;
38567;SDS011;24338;48.280;10.970;2022-11-14T00:37:59;23.80;;;12.50;;
38567;SDS011;24338;48.280;10.970;2022-11-14T00:40:26;21.98;;;11.35;;
38567;SDS011;24338;48.280;10.970;2022-11-14T00:42:53;24.30;;;13.27;;
38567;SDS011;24338;48.280;10.970;2022-11-14T00:45:20;24.58;;;12.65;;
38567;SDS011;24338;48.280;10.970;2022-11-14T00:47:47;17.52;;;11.30;;
38567;SDS011;24338;48.280;10.970;2022-11-14T00:50:14;22.58;;;10.90;;
38567;SDS011;24338;48.280;10.970;2022-11-14T00:52:42;17.75;;;10.45;;
38567;SDS011;24338;48.280;10.970;2022-11-14T00:55:09;27.05;;;10.77;;
38567;SDS011;24338;48.280;10.970;2022-11-14T00:57:36;17.10;;;10.20;;
38567;SDS011;24338;48.280;10.970;2022-11-14T01:00:03;16.17;;;9.73;;
38567;SDS011;24338;48.280;10.970;2022-11-14T01:02:31;13.38;;;8.60;;
38567;SDS011;24338;48.280;10.970;2022-11-14T01:04:58;14.70;;;10.00;;
38567;SDS011;24338;48.280;10.970;2022-11-14T01:07:25;14.43;;;9.18;;
38567;SDS011;24338;48.280;10.970;2022-11-14T01:09:52;13.82;;;9.75;;
38567;SDS011;24338;48.280;10.970;2022-11-14T01:12:19;13.70;;;9.25;;
38567;SDS011;24338;48.280;10.970;2022-11-14T01:14:46;15.85;;;9.48;;
38567;SDS011;24338;48.280;10.970;2022-11-14T01:17:13;14.55;;;8.88;;
38567;SDS011;24338;48.280;10.970;2022-11-14T01:19:40;19.73;;;9.52;;
38567;SDS011;24338;48.280;10.970;2022-11-14T01:22:07;15.80;;;9.68;;
38567;SDS011;24338;48.280;10.970;2022-11-14T01:24:34;14.95;;;9.10;;
38567;SDS011;24338;48.280;10.970;2022-11-14T01:27:01;16.45;;;9.25;;
38567;SDS011;24338;48.280;10.970;2022-11-14T01:29:28;15.93;;;9.30;;
38567;SDS011;24338;48.280;10.970;2022-11-14T01:31:55;17.38;;;9.20;;
38567;SDS011;24338;48.280;10.970;2022-11-14T01:34:22;12.23;;;9.00;;
38567;SDS011;24338;48.280;10.970;2022-11-14T01:36:49;14.13;;;9.70;;
38567;SDS011;24338;48.280;10.970;2022-11-14T01:39:16;17.17;;;9.48;;
38567;SDS011;24338;48.280;10.970;2022-11-14T01:41:42;12.35;;;10.18;;
38567;SDS011;24338;48.280;10.970;2022-11-14T01:44:16;18.35;;;10.50;;
38567;SDS011;24338;48.280;10.970;2022-11-14T01:47:03;13.98;;;9.95;;
38567;SDS011;24338;48.280;10.970;2022-11-14T01:49:35;18.15;;;10.57;;
38567;SDS011;24338;48.280;10.970;2022-11-14T01:52:06;15.57;;;9.48;;
38567;SDS011;24338;48.280;10.970;2022-11-14T01:54:38;13.60;;;8.75;;
38567;SDS011;24338;48.280;10.970;2022-11-14T01:57:10;14.70;;;9.65;;
38567;SDS011;24338;48.280;10.970;2022-11-14T01:59:40;18.65;;;11.02;;
38567;SDS011;24338;48.280;10.970;2022-11-14T02:02:15;19.73;;;10.73;;
38567;SDS011;24338;48.280;10.970;2022-11-14T02:04:51;15.38;;;10.07;;
38567;SDS011;24338;48.280;10.970;2022-11-14T02:07:26;18.55;;;11.75;;
38567;SDS011;24338;48.280;10.970;2022-11-14T02:09:55;18.42;;;12.02;;
38567;SDS011;24338;48.280;10.970;2022-11-14T02:12:22;20.63;;;12.85;;
38567;SDS011;24338;48.280;10.970;2022-11-14T02:14:50;16.67;;;10.95;;
38567;SDS011;24338;48.280;10.970;2022-11-14T02:17:19;19.52;;;12.07;;
38567;SDS011;24338;48.280;10.970;2022-11-14T02:22:31;16.67;;;11.73;;
38567;SDS011;24338;48.280;10.970;2022-11-14T02:24:58;15.93;;;10.65;;
38567;SDS011;24338;48.280;10.970;2022-11-14T02:27:25;16.73;;;10.45;;
38567;SDS011;24338;48.280;10.970;2022-11-14T02:29:52;17.50;;;11.10;;
38567;SDS011;24338;48.280;10.970;2022-11-14T02:32:18;18.08;;;11.25;;
38567;SDS011;24338;48.280;10.970;2022-11-14T02:34:45;16.23;;;9.80;;
38567;SDS011;24338;48.280;10.970;2022-11-14T02:37:12;19.05;;;10.70;;
38567;SDS011;24338;48.280;10.970;2022-11-14T02:39:39;16.85;;;11.68;;
38567;SDS011;24338;48.280;10.970;2022-11-14T02:42:06;16.70;;;9.60;;
38567;SDS011;24338;48.280;10.970;2022-11-14T02:44:33;18.58;;;10.90;;
38567;SDS011;24338;48.280;10.970;2022-11-14T02:47:00;20.45;;;10.55;;
38567;SDS011;24338;48.280;10.970;2022-11-14T02:49:27;13.70;;;10.20;;
38567;SDS011;24338;48.280;10.970;2022-11-14T02:51:54;15.55;;;10.20;;
38567;SDS011;24338;48.280;10.970;2022-11-14T02:54:20;16.33;;;10.30;;
38567;SDS011;24338;48.280;10.970;2022-11-14T02:56:47;14.63;;;10.00;;
38567;SDS011;24338;48.280;10.970;2022-11-14T02:59:14;13.90;;;9.38;;
38567;SDS011;24338;48.280;10.970;2022-11-14T03:01:41;14.65;;;10.65;;
38567;SDS011;24338;48.280;10.970;2022-11-14T03:04:08;14.45;;;9.77;;
38567;SDS011;24338;48.280;10.970;2022-11-14T03:06:35;15.90;;;10.75;;
38567;SDS011;24338;48.280;10.970;2022-11-14T03:09:02;14.07;;;9.35;;
38567;SDS011;24338;48.280;10.970;2022-11-14T03:11:29;14.95;;;10.05;;
38567;SDS011;24338;48.280;10.970;2022-11-14T03:13:57;14.00;;;9.32;;
38567;SDS011;24338;48.280;10.970;2022-11-14T03:16:25;14.00;;;9.57;;
38567;SDS011;24338;48.280;10.970;2022-11-14T03:18:52;14.52;;;10.05;;
38567;SDS011;24338;48.280;10.970;2022-11-14T03:21:21;13.90;;;9.95;;
38567;SDS011;24338;48.280;10.970;2022-11-14T03:23:48;15.57;;;10.02;;
38567;SDS011;24338;48.280;10.970;2022-11-14T03:26:15;15.45;;;10.77;;
38567;SDS011;24338;48.280;10.970;2022-11-14T03:28:42;14.63;;;10.25;;
38567;SDS011;24338;48.280;10.970;2022-11-14T03:31:10;14.32;;;10.30;;
38567;SDS011;24338;48.280;10.970;2022-11-14T03:33:37;15.52;;;9.82;;
38567;SDS011;24338;48.280;10.970;2022-11-14T03:36:05;13.45;;;9.45;;
38567;SDS011;24338;48.280;10.970;2022-11-14T03:38:32;11.82;;;9.02;;
38567;SDS011;24338;48.280;10.970;2022-11-14T03:40:59;12.75;;;8.95;;
38567;SDS011;24338;48.280;10.970;2022-11-14T03:43:29;12.20;;;8.95;;
38567;SDS011;24338;48.280;10.970;2022-11-14T03:45:58;13.70;;;9.13;;
38567;SDS011;24338;48.280;10.970;2022-11-14T03:48:26;11.63;;;7.90;;
38567;SDS011;24338;48.280;10.970;2022-11-14T03:50:54;11.35;;;8.10;;
38567;SDS011;24338;48.280;10.970;2022-11-14T03:53:21;11.93;;;8.32;;
38567;SDS011;24338;48.280;10.970;2022-11-14T03:55:49;10.95;;;7.72;;
38567;SDS011;24338;48.280;10.970;2022-11-14T03:58:17;12.73;;;8.38;;
38567;SDS011;24338;48.280;10.970;2022-11-14T04:00:44;10.63;;;8.05;;
38567;SDS011;24338;48.280;10.970;2022-11-14T04:03:10;12.20;;;8.85;;
38567;SDS011;24338;48.280;10.970;2022-11-14T04:05:37;10.55;;;7.80;;
38567;SDS011;24338;48.280;10.970;2022-11-14T04:08:05;10.35;;;7.05;;
38567;SDS011;24338;48.280;10.970;2022-11-14T04:10:32;10.07;;;7.28;;
38567;SDS011;24338;48.280;10.970;2022-11-14T04:12:59;10.88;;;7.65;;
38567;SDS011;24338;48.280;10.970;2022-11-14T04:15:26;11.00;;;8.15;;
38567;SDS011;24338;48.280;10.970;2022-11-14T04:17:53;9.43;;;7.47;;
38567;SDS011;24338;48.280;10.970;2022-11-14T04:20:19;11.70;;;7.50;;
38567;SDS011;24338;48.280;10.970;2022-11-14T04:22:46;9.88;;;7.55;;
38567;SDS011;24338;48.280;10.970;2022-11-14T04:25:13;7.68;;;5.68;;
38567;SDS011;24338;48.280;10.970;2022-11-14T04:27:41;8.48;;;6.65;;
38567;SDS011;24338;48.280;10.970;2022-11-14T04:30:08;8.70;;;6.70;;
38567;SDS011;24338;48.280;10.970;2022-11-14T04:32:36;10.63;;;7.40;;
38567;SDS011;24338;48.280;10.970;2022-11-14T04:35:03;8.73;;;6.72;;
38567;SDS011;24338;48.280;10.970;2022-11-14T04:37:30;9.90;;;7.25;;
38567;SDS011;24338;48.280;10.970;2022-11-14T04:39:57;7.93;;;6.75;;
38567;SDS011;24338;48.280;10.970;2022-11-14T04:42:26;9.07;;;6.75;;
38567;SDS011;24338;48.280;10.970;2022-11-14T04:44:52;8.93;;;5.97;;
38567;SDS011;24338;48.280;10.970;2022-11-14T04:47:20;8.68;;;6.25;;
38567;SDS011;24338;48.280;10.970;2022-11-14T04:49:46;10.02;;;7.15;;
38567;SDS011;24338;48.280;10.970;2022-11-14T04:52:13;9.57;;;6.43;;
38567;SDS011;24338;48.280;10.970;2022-11-14T04:54:40;8.13;;;6.15;;
38567;SDS011;24338;48.280;10.970;2022-11-14T04:57:07;7.45;;;5.53;;
38567;SDS011;24338;48.280;10.970;2022-11-14T04:59:34;7.70;;;5.80;;
38567;SDS011;24338;48.280;10.970;2022-11-14T05:02:01;8.98;;;5.45;;
38567;SDS011;24338;48.280;10.970;2022-11-14T05:04:28;6.43;;;4.43;;
38567;SDS011;24338;48.280;10.970;2022-11-14T05:06:54;6.90;;;5.40;;
38567;SDS011;24338;48.280;10.970;2022-11-14T05:09:21;8.35;;;5.13;;
38567;SDS011;24338;48.280;10.970;2022-11-14T05:11:48;6.72;;;5.03;;
38567;SDS011;24338;48.280;10.970;2022-11-14T05:14:15;6.40;;;4.30;;
38567;SDS011;24338;48.280;10.970;2022-11-14T05:16:42;7.53;;;5.32;;
38567;SDS011;24338;48.280;10.970;2022-11-14T05:19:09;6.82;;;5.10;;
38567;SDS011;24338;48.280;10.970;2022-11-14T05:21:36;7.22;;;5.55;;
38567;SDS011;24338;48.280;10.970;2022-11-14T05:24:02;8.18;;;5.93;;
38567;SDS011;24338;48.280;10.970;2022-11-14T05:26:30;8.90;;;6.30;;
38567;SDS011;24338;48.280;10.970;2022-11-14T05:28:56;9.05;;;6.25;;
38567;SDS011;24338;48.280;10.970;2022-11-14T05:31:23;8.13;;;5.90;;
38567;SDS011;24338;48.280;10.970;2022-11-14T05:33:50;7.45;;;5.60;;
38567;SDS011;24338;48.280;10.970;2022-11-14T05:36:17;8.23;;;6.50;;
38567;SDS011;24338;48.280;10.970;2022-11-14T05:38:44;8.13;;;5.90;;
38567;SDS011;24338;48.280;10.970;2022-11-14T05:41:12;7.93;;;6.00;;
38567;SDS011;24338;48.280;10.970;2022-11-14T05:43:40;7.53;;;5.75;;
38567;SDS011;24338;48.280;10.970;2022-11-14T05:46:11;8.05;;;5.57;;
38567;SDS011;24338;48.280;10.970;2022-11-14T05:48:41;6.97;;;5.30;;
38567;SDS011;24338;48.280;10.970;2022-11-14T05:51:11;7.35;;;4.65;;
38567;SDS011;24338;48.280;10.970;2022-11-14T05:53:39;6.47;;;4.93;;
38567;SDS011;24338;48.280;10.970;2022-11-14T05:56:08;7.00;;;5.57;;
38567;SDS011;24338;48.280;10.970;2022-11-14T05:58:36;10.80;;;5.47;;
38567;SDS011;24338;48.280;10.970;2022-11-14T06:01:05;7.38;;;5.45;;
38567;SDS011;24338;48.280;10.970;2022-11-14T06:03:41;8.30;;;5.95;;
38567;SDS011;24338;48.280;10.970;2022-11-14T06:06:10;8.93;;;6.40;;
38567;SDS011;24338;48.280;10.970;2022-11-14T06:08:40;8.80;;;6.05;;
38567;SDS011;24338;48.280;10.970;2022-11-14T06:11:14;7.88;;;5.90;;
38567;SDS011;24338;48.280;10.970;2022-11-14T06:13:43;9.02;;;5.72;;
38567;SDS011;24338;48.280;10.970;2022-11-14T06:16:17;12.48;;;6.30;;
38567;SDS011;24338;48.280;10.970;2022-11-14T06:18:44;8.30;;;5.80;;
38567;SDS011;24338;48.280;10.970;2022-11-14T06:21:12;8.05;;;6.05;;
38567;SDS011;24338;48.280;10.970;2022-11-14T06:23:41;14.40;;;6.60;;
38567;SDS011;24338;48.280;10.970;2022-11-14T06:26:27;14.70;;;6.70;;
38567;SDS011;24338;48.280;10.970;2022-11-14T06:28:56;10.00;;;6.63;;
38567;SDS011;24338;48.280;10.970;2022-11-14T06:31:24;11.27;;;6.82;;
38567;SDS011;24338;48.280;10.970;2022-11-14T06:33:52;9.77;;;6.53;;
38567;SDS011;24338;48.280;10.970;2022-11-14T06:36:19;16.50;;;6.40;;
38567;SDS011;24338;48.280;10.970;2022-11-14T06:38:46;11.05;;;6.38;;
38567;SDS011;24338;48.280;10.970;2022-11-14T06:41:13;12.43;;;6.82;;
38567;SDS011;24338;48.280;10.970;2022-11-14T06:43:45;14.75;;;6.65;;
38567;SDS011;24338;48.280;10.970;2022-11-14T06:46:18;11.48;;;6.32;;
38567;SDS011;24338;48.280;10.970;2022-11-14T06:48:47;10.23;;;5.78;;
38567;SDS011;24338;48.280;10.970;2022-11-14T06:51:15;10.57;;;5.72;;
38567;SDS011;24338;48.280;10.970;2022-11-14T06:53:42;10.48;;;6.30;;
38567;SDS011;24338;48.280;10.970;2022-11-14T06:56:10;8.07;;;5.70;;
38567;SDS011;24338;48.280;10.970;2022-11-14T06:58:39;8.77;;;5.35;;
38567;SDS011;24338;48.280;10.970;2022-11-14T07:01:26;9.07;;;5.65;;
38567;SDS011;24338;48.280;10.970;2022-11-14T07:06:23;9.23;;;6.00;;
38567;SDS011;24338;48.280;10.970;2022-11-14T07:08:51;8.38;;;5.88;;
38567;SDS011;24338;48.280;10.970;2022-11-14T07:11:20;10.52;;;6.10;;
38567;SDS011;24338;48.280;10.970;2022-11-14T07:13:55;8.20;;;5.80;;
38567;SDS011;24338;48.280;10.970;2022-11-14T07:16:26;9.73;;;6.30;;
38567;SDS011;24338;48.280;10.970;2022-11-14T07:18:55;9.20;;;5.85;;
38567;SDS011;24338;48.280;10.970;2022-11-14T07:21:23;9.30;;;5.60;;
38567;SDS011;24338;48.280;10.970;2022-11-14T07:23:51;12.38;;;5.95;;
38567;SDS011;24338;48.280;10.970;2022-11-14T07:26:18;15.50;;;5.82;;
38567;SDS011;24338;48.280;10.970;2022-11-14T07:28:45;22.95;;;9.02;;
38567;SDS011;24338;48.280;10.970;2022-11-14T07:31:19;43.80;;;17.13;;
38567;SDS011;24338;48.280;10.970;2022-11-14T07:33:47;39.97;;;15.80;;
38567;SDS011;24338;48.280;10.970;2022-11-14T07:36:14;38.08;;;15.68;;
38567;SDS011;24338;48.280;10.970;2022-11-14T07:38:42;30.80;;;13.88;;
38567;SDS011;24338;48.280;10.970;2022-11-14T07:41:13;39.20;;;16.77;;
38567;SDS011;24338;48.280;10.970;2022-11-14T07:43:41;29.88;;;16.67;;
38567;SDS011;24338;48.280;10.970;2022-11-14T07:46:12;23.83;;;11.10;;
38567;SDS011;24338;48.280;10.970;2022-11-14T07:48:41;24.05;;;10.23;;
38567;SDS011;24338;48.280;10.970;2022-11-14T07:51:08;19.52;;;8.25;;
38567;SDS011;24338;48.280;10.970;2022-11-14T07:53:40;25.55;;;7.65;;
38567;SDS011;24338;48.280;10.970;2022-11-14T07:56:07;35.00;;;8.00;;
38567;SDS011;24338;48.280;10.970;2022-11-14T07:58:38;16.30;;;6.20;;
38567;SDS011;24338;48.280;10.970;2022-11-14T08:01:06;26.85;;;7.28;;
38567;SDS011;24338;48.280;10.970;2022-11-14T08:03:35;16.13;;;7.10;;
38567;SDS011;24338;48.280;10.970;2022-11-14T08:06:11;24.00;;;7.88;;
38567;SDS011;24338;48.280;10.970;2022-11-14T08:08:40;31.85;;;8.63;;
38567;SDS011;24338;48.280;10.970;2022-11-14T08:11:07;36.28;;;8.20;;
38567;SDS011;24338;48.280;10.970;2022-11-14T08:13:34;21.58;;;6.85;;
38567;SDS011;24338;48.280;10.970;2022-11-14T08:16:04;24.90;;;7.60;;
38567;SDS011;24338;48.280;10.970;2022-11-14T08:18:38;25.50;;;6.78;;
38567;SDS011;24338;48.280;10.970;2022-11-14T08:21:05;24.85;;;6.80;;
38567;SDS011;24338;48.280;10.970;2022-11-14T08:23:33;30.52;;;7.13;;
38567;SDS011;24338;48.280;10.970;2022-11-14T08:25:59;32.58;;;7.15;;
38567;SDS011;24338;48.280;10.970;2022-11-14T08:28:26;32.60;;;9.10;;
38567;SDS011;24338;48.280;10.970;2022-11-14T08:30:58;17.50;;;7.53;;
38567;SDS011;24338;48.280;10.970;2022-11-14T08:35:53;26.45;;;7.13;;
38567;SDS011;24338;48.280;10.970;2022-11-14T08:38:20;16.90;;;6.90;;
38567;SDS011;24338;48.280;10.970;2022-11-14T08:40:46;25.02;;;7.00;;
38567;SDS011;24338;48.280;10.970;2022-11-14T08:43:13;18.38;;;6.25;;
38567;SDS011;24338;48.280;10.970;2022-11-14T08:45:40;17.05;;;5.90;;
38567;SDS011;24338;48.280;10.970;2022-11-14T08:48:07;11.63;;;6.55;;
38567;SDS011;24338;48.280;10.970;2022-11-14T08:50:35;13.60;;;6.60;;
38567;SDS011;24338;48.280;10.970;2022-11-14T08:53:02;12.70;;;8.40;;
38567;SDS011;24338;48.280;10.970;2022-11-14T08:55:28;10.95;;;8.60;;
38567;SDS011;24338;48.280;10.970;2022-11-14T08:57:55;11.30;;;6.07;;
38567;SDS011;24338;48.280;10.970;2022-11-14T09:00:22;13.68;;;7.20;;
38567;SDS011;24338;48.280;10.970;2022-11-14T09:02:49;16.38;;;7.50;;
38567;SDS011;24338;48.280;10.970;2022-11-14T09:05:16;28.50;;;6.57;;
38567;SDS011;24338;48.280;10.970;2022-11-14T09:07:43;17.13;;;6.05;;
38567;SDS011;24338;48.280;10.970;2022-11-14T09:10:10;10.85;;;6.32;;
38567;SDS011;24338;48.280;10.970;2022-11-14T09:12:37;21.33;;;6.75;;
38567;SDS011;24338;48.280;10.970;2022-11-14T09:15:04;28.40;;;6.10;;
38567;SDS011;24338;48.280;10.970;2022-11-14T09:17:31;23.23;;;5.35;;
38567;SDS011;24338;48.280;10.970;2022-11-14T09:19:58;14.48;;;4.60;;
38567;SDS011;24338;48.280;10.970;2022-11-14T09:22:25;21.90;;;8.77;;
38567;SDS011;24338;48.280;10.970;2022-11-14T09:24:52;18.55;;;10.02;;
38567;SDS011;24338;48.280;10.970;2022-11-14T09:27:19;40.38;;;19.90;;
38567;SDS011;24338;48.280;10.970;2022-11-14T09:29:46;17.33;;;6.72;;
38567;SDS011;24338;48.280;10.970;2022-11-14T09:32:12;53.53;;;26.95;;
38567;SDS011;24338;48.280;10.970;2022-11-14T09:34:39;37.78;;;21.08;;
38567;SDS011;24338;48.280;10.970;2022-11-14T09:37:10;16.85;;;7.70;;
38567;SDS011;24338;48.280;10.970;2022-11-14T09:39:37;15.85;;;8.75;;
38567;SDS011;24338;48.280;10.970;2022-11-14T09:47:31;24.35;;;5.88;;
38567;SDS011;24338;48.280;10.970;2022-11-14T09:52:45;10.52;;;5.53;;
38567;SDS011;24338;48.280;10.970;2022-11-14T09:55:24;11.45;;;5.32;;
38567;SDS011;24338;48.280;10.970;2022-11-14T09:58:02;14.45;;;5.10;;
38567;SDS011;24338;48.280;10.970;2022-11-14T10:25:33;11.50;;;6.72;;
38567;SDS011;24338;48.280;10.970;2022-11-14T10:36:31;7.22;;;5.55;;
38567;SDS011;24338;48.280;10.970;2022-11-14T10:39:36;8.07;;;5.88;;
38567;SDS011;24338;48.280;10.970;2022-11-14T10:44:56;7.18;;;5.15;;
38567;SDS011;24338;48.280;10.970;2022-11-14T10:47:48;6.78;;;5.35;;
38567;SDS011;24338;48.280;10.970;2022-11-14T10:53:06;8.55;;;6.55;;
38567;SDS011;24338;48.280;10.970;2022-11-14T10:55:57;7.97;;;5.55;;
38567;SDS011;24338;48.280;10.970;2022-11-14T11:04:20;6.30;;;5.05;;
38567;SDS011;24338;48.280;10.970;2022-11-14T11:06:55;8.32;;;5.32;;
38567;SDS011;24338;48.280;10.970;2022-11-14T11:09:35;6.05;;;4.80;;
38567;SDS011;24338;48.280;10.970;2022-11-14T11:12:22;7.20;;;6.18;;
38567;SDS011;24338;48.280;10.970;2022-11-14T11:15:18;10.35;;;5.18;;
38567;SDS011;24338;48.280;10.970;2022-11-14T11:17:58;8.05;;;5.60;;
38567;SDS011;24338;48.280;10.970;2022-11-14T11:25:36;8.13;;;4.95;;
38567;SDS011;24338;48.280;10.970;2022-11-14T11:30:53;7.50;;;6.00;;
38567;SDS011;24338;48.280;10.970;2022-11-14T11:33:25;7.05;;;5.75;;
38567;SDS011;24338;48.280;10.970;2022-11-14T11:36:02;9.40;;;6.90;;
38567;SDS011;24338;48.280;10.970;2022-11-14T11:38:43;9.63;;;6.05;;
38567;SDS011;24338;48.280;10.970;2022-11-14T11:44:16;7.43;;;5.72;;
38567;SDS011;24338;48.280;10.970;2022-11-14T11:46:50;7.55;;;6.32;;
38567;SDS011;24338;48.280;10.970;2022-11-14T11:52:25;7.70;;;5.57;;
38567;SDS011;24338;48.280;10.970;2022-11-14T11:54:58;7.85;;;5.72;;
38567;SDS011;24338;48.280;10.970;2022-11-14T11:57:32;7.97;;;5.95;;
38567;SDS011;24338;48.280;10.970;2022-11-14T12:00:21;6.88;;;5.40;;
38567;SDS011;24338;48.280;10.970;2022-11-14T12:02:49;9.40;;;5.30;;
38567;SDS011;24338;48.280;10.970;2022-11-14T12:10:46;9.85;;;5.80;;
38567;SDS011;24338;48.280;10.970;2022-11-14T12:24:16;8.13;;;6.25;;
38567;SDS011;24338;48.280;10.970;2022-11-14T12:27:03;9.13;;;6.00;;
38567;SDS011;24338;48.280;10.970;2022-11-14T12:32:35;7.40;;;5.32;;
38567;SDS011;24338;48.280;10.970;2022-11-14T12:35:46;8.02;;;6.20;;
38567;SDS011;24338;48.280;10.970;2022-11-14T12:38:13;7.72;;;5.72;;
38567;SDS011;24338;48.280;10.970;2022-11-14T12:40:49;6.90;;;5.13;;
38567;SDS011;24338;48.280;10.970;2022-11-14T12:43:27;7.68;;;6.07;;
38567;SDS011;24338;48.280;10.970;2022-11-14T12:46:06;8.02;;;5.40;;
38567;SDS011;24338;48.280;10.970;2022-11-14T12:48:37;13.43;;;5.85;;
38567;SDS011;24338;48.280;10.970;2022-11-14T12:53:51;8.40;;;5.63;;
38567;SDS011;24338;48.280;10.970;2022-11-14T12:56:39;9.38;;;5.45;;
38567;SDS011;24338;48.280;10.970;2022-11-14T13:02:43;8.88;;;5.57;;
38567;SDS011;24338;48.280;10.970;2022-11-14T13:05:21;7.28;;;5.28;;
38567;SDS011;24338;48.280;10.970;2022-11-14T13:14:19;9.00;;;6.18;;
38567;SDS011;24338;48.280;10.970;2022-11-14T13:17:08;9.30;;;6.07;;
38567;SDS011;24338;48.280;10.970;2022-11-14T13:19:57;9.07;;;6.03;;
38567;SDS011;24338;48.280;10.970;2022-11-14T13:22:43;7.45;;;6.22;;
38567;SDS011;24338;48.280;10.970;2022-11-14T13:25:18;10.00;;;6.05;;
38567;SDS011;24338;48.280;10.970;2022-11-14T13:27:46;7.03;;;5.47;;
38567;SDS011;24338;48.280;10.970;2022-11-14T13:33:48;7.32;;;4.85;;
38567;SDS011;24338;48.280;10.970;2022-11-14T13:39:21;7.68;;;4.75;;
38567;SDS011;24338;48.280;10.970;2022-11-14T13:42:10;7.43;;;4.82;;
38567;SDS011;24338;48.280;10.970;2022-11-14T13:47:39;10.52;;;6.30;;
38567;SDS011;24338;48.280;10.970;2022-11-14T13:50:13;8.15;;;5.40;;
38567;SDS011;24338;48.280;10.970;2022-11-14T13:52:43;7.28;;;5.50;;
38567;SDS011;24338;48.280;10.970;2022-11-14T13:55:22;7.40;;;5.03;;
38567;SDS011;24338;48.280;10.970;2022-11-14T14:03:47;7.55;;;5.13;;
38567;SDS011;24338;48.280;10.970;2022-11-14T14:06:46;8.45;;;5.43;;
38567;SDS011;24338;48.280;10.970;2022-11-14T14:17:29;7.60;;;4.82;;
38567;SDS011;24338;48.280;10.970;2022-11-14T14:20:43;6.68;;;5.05;;
38567;SDS011;24338;48.280;10.970;2022-11-14T14:31:33;8.13;;;5.43;;
38567;SDS011;24338;48.280;10.970;2022-11-14T14:34:17;7.47;;;4.82;;
38567;SDS011;24338;48.280;10.970;2022-11-14T14:36:56;6.32;;;4.45;;
38567;SDS011;24338;48.280;10.970;2022-11-14T14:39:24;8.57;;;5.15;;
38567;SDS011;24338;48.280;10.970;2022-11-14T14:41:53;7.78;;;5.50;;
38567;SDS011;24338;48.280;10.970;2022-11-14T14:46:55;6.75;;;4.90;;
38567;SDS011;24338;48.280;10.970;2022-11-14T14:49:23;7.65;;;4.75;;
38567;SDS011;24338;48.280;10.970;2022-11-14T14:52:00;8.45;;;5.28;;
38567;SDS011;24338;48.280;10.970;2022-11-14T14:54:27;6.65;;;4.55;;
38567;SDS011;24338;48.280;10.970;2022-11-14T14:56:56;7.55;;;5.35;;
38567;SDS011;24338;48.280;10.970;2022-11-14T14:59:29;6.78;;;5.15;;
38567;SDS011;24338;48.280;10.970;2022-11-14T15:01:56;9.60;;;5.15;;
38567;SDS011;24338;48.280;10.970;2022-11-14T15:04:25;7.22;;;5.22;;
38567;SDS011;24338;48.280;10.970;2022-11-14T15:06:53;8.55;;;5.35;;
38567;SDS011;24338;48.280;10.970;2022-11-14T15:09:27;7.75;;;5.22;;
38567;SDS011;24338;48.280;10.970;2022-11-14T15:11:58;10.68;;;5.10;;
38567;SDS011;24338;48.280;10.970;2022-11-14T15:14:27;9.57;;;6.15;;
38567;SDS011;24338;48.280;10.970;2022-11-14T15:16:57;9.30;;;6.43;;
38567;SDS011;24338;48.280;10.970;2022-11-14T15:19:36;8.90;;;6.50;;
38567;SDS011;24338;48.280;10.970;2022-11-14T15:24:41;8.48;;;5.88;;
38567;SDS011;24338;48.280;10.970;2022-11-14T15:29:46;9.50;;;5.97;;
38567;SDS011;24338;48.280;10.970;2022-11-14T15:32:16;11.52;;;7.35;;
38567;SDS011;24338;48.280;10.970;2022-11-14T15:35:05;9.70;;;6.40;;
38567;SDS011;24338;48.280;10.970;2022-11-14T15:37:33;9.32;;;6.75;;
38567;SDS011;24338;48.280;10.970;2022-11-14T15:40:17;8.05;;;5.90;;
38567;SDS011;24338;48.280;10.970;2022-11-14T15:42:45;9.10;;;6.15;;
38567;SDS011;24338;48.280;10.970;2022-11-14T15:45:19;10.65;;;7.25;;
38567;SDS011;24338;48.280;10.970;2022-11-14T15:47:47;12.50;;;9.60;;
38567;SDS011;24338;48.280;10.970;2022-11-14T15:50:29;16.02;;;10.38;;
38567;SDS011;24338;48.280;10.970;2022-11-14T15:55:29;13.23;;;7.95;;
38567;SDS011;24338;48.280;10.970;2022-11-14T15:57:56;13.20;;;7.22;;
38567;SDS011;24338;48.280;10.970;2022-11-14T16:00:47;12.57;;;7.82;;
38567;SDS011;24338;48.280;10.970;2022-11-14T16:03:19;14.80;;;9.57;;
38567;SDS011;24338;48.280;10.970;2022-11-14T16:05:48;14.52;;;8.57;;
38567;SDS011;24338;48.280;10.970;2022-11-14T16:08:14;13.77;;;7.78;;
38567;SDS011;24338;48.280;10.970;2022-11-14T16:10:41;15.32;;;7.85;;
38567;SDS011;24338;48.280;10.970;2022-11-14T16:13:08;8.43;;;6.18;;
38567;SDS011;24338;48.280;10.970;2022-11-14T16:15:36;10.90;;;7.05;;
38567;SDS011;24338;48.280;10.970;2022-11-14T16:18:03;8.75;;;7.32;;
38567;SDS011;24338;48.280;10.970;2022-11-14T16:20:31;11.38;;;7.53;;
38567;SDS011;24338;48.280;10.970;2022-11-14T16:23:03;9.27;;;6.75;;
38567;SDS011;24338;48.280;10.970;2022-11-14T16:25:31;9.73;;;6.85;;
38567;SDS011;24338;48.280;10.970;2022-11-14T16:27:58;9.43;;;6.85;;
38567;SDS011;24338;48.280;10.970;2022-11-14T16:30:25;10.90;;;6.35;;
38567;SDS011;24338;48.280;10.970;2022-11-14T16:32:52;10.88;;;7.20;;
38567;SDS011;24338;48.280;10.970;2022-11-14T16:35:23;10.52;;;7.18;;
38567;SDS011;24338;48.280;10.970;2022-11-14T16:37:51;7.57;;;5.97;;
38567;SDS011;24338;48.280;10.970;2022-11-14T16:40:21;9.85;;;7.07;;
38567;SDS011;24338;48.280;10.970;2022-11-14T16:42:56;11.15;;;7.50;;
38567;SDS011;24338;48.280;10.970;2022-11-14T16:45:24;11.05;;;7.68;;
38567;SDS011;24338;48.280;10.970;2022-11-14T16:47:53;10.63;;;7.40;;
38567;SDS011;24338;48.280;10.970;2022-11-14T16:50:19;11.38;;;7.43;;
38567;SDS011;24338;48.280;10.970;2022-11-14T16:52:46;14.40;;;8.68;;
38567;SDS011;24338;48.280;10.970;2022-11-14T16:55:13;16.17;;;12.60;;
38567;SDS011;24338;48.280;10.970;2022-11-14T16:57:40;15.05;;;11.73;;
38567;SDS011;24338;48.280;10.970;2022-11-14T17:00:08;17.20;;;12.73;;
38567;SDS011;24338;48.280;10.970;2022-11-14T17:02:40;16.00;;;11.10;;
38567;SDS011;24338;48.280;10.970;2022-11-14T17:05:08;12.85;;;10.32;;
38567;SDS011;24338;48.280;10.970;2022-11-14T17:07:34;18.30;;;11.93;;
38567;SDS011;24338;48.280;10.970;2022-11-14T17:10:01;22.05;;;13.98;;